createdAt,value
2022-08-22T00:00:14.072Z,65.80
2022-08-22T00:02:53.998Z,67.69
2022-08-22T00:03:00.023Z,65.50
2022-08-22T00:03:11.074Z,66.95
2022-08-22T00:03:17.310Z,66.03
2022-08-22T00:06:09.288Z,66.54
2022-08-22T00:09:12.116Z,65.92
2022-08-22T00:11:46.008Z,65.81
2022-08-22T00:14:52.756Z,65.75
2022-08-22T00:17:24.438Z,65.73
2022-08-22T00:20:01.213Z,66.16
2022-08-22T00:23:18.873Z,64.12
2022-08-22T00:26:05.496Z,63.96
2022-08-22T00:28:45.561Z,61.84
2022-08-22T00:31:19.479Z,61.98
2022-08-22T00:34:23.740Z,63.12
2022-08-22T00:37:21.796Z,63.53
2022-08-22T00:40:17.164Z,63.70
2022-08-22T00:43:05.696Z,64.10
2022-08-22T00:45:58.653Z,64.79
2022-08-22T00:48:44.724Z,64.89
2022-08-22T00:51:30.664Z,64.74
2022-08-22T00:54:33.138Z,63.49
2022-08-22T00:57:36.992Z,62.83
2022-08-22T01:00:24.408Z,62.46
2022-08-22T01:03:28.125Z,62.31
2022-08-22T01:05:56.701Z,63.52
2022-08-22T01:08:40.122Z,63.72
2022-08-22T01:11:36.093Z,63.38
2022-08-22T01:14:12.744Z,64.00
2022-08-22T01:16:59.835Z,63.74
2022-08-22T01:19:58.613Z,63.67
2022-08-22T01:23:00.696Z,64.43
2022-08-22T01:25:56.696Z,64.74
2022-08-22T01:28:34.265Z,64.70
2022-08-22T01:31:12.080Z,65.17
2022-08-22T01:34:13.337Z,65.38
2022-08-22T01:37:19.966Z,65.91
2022-08-22T01:40:08.703Z,66.40
2022-08-22T01:42:56.734Z,66.55
2022-08-22T01:45:56.352Z,66.09
2022-08-22T01:48:40.381Z,65.52
2022-08-22T01:51:17.985Z,65.97
2022-08-22T01:53:52.294Z,66.51
2022-08-22T01:56:24.415Z,66.33
2022-08-22T01:59:03.684Z,66.70
2022-08-22T02:01:35.175Z,67.71
2022-08-22T02:04:07.285Z,67.30
2022-08-22T02:06:54.076Z,68.09
2022-08-22T02:09:35.051Z,68.49
2022-08-22T02:12:32.985Z,68.49
2022-08-22T02:15:43.997Z,68.89
2022-08-22T02:18:28.482Z,69.36
2022-08-22T02:21:22.629Z,69.69
2022-08-22T02:24:17.952Z,69.43
2022-08-22T02:27:14.425Z,69.39
2022-08-22T02:29:55.318Z,70.15
2022-08-22T02:32:41.788Z,70.21
2022-08-22T02:35:19.659Z,70.40
2022-08-22T02:38:09.887Z,70.72
2022-08-22T02:40:40.889Z,71.13
2022-08-22T02:43:22.708Z,72.08
2022-08-22T02:46:05.242Z,71.96
2022-08-22T02:48:50.616Z,72.79
2022-08-22T02:51:41.571Z,73.05
2022-08-22T02:54:27.560Z,73.52
2022-08-22T02:57:04.860Z,73.90
2022-08-22T03:00:02.333Z,74.46
2022-08-22T03:03:01.688Z,74.88
2022-08-22T03:05:32.125Z,75.24
2022-08-22T03:08:06.843Z,75.45
2022-08-22T03:10:42.280Z,75.75
2022-08-22T03:13:26.238Z,76.22
2022-08-22T03:16:01.046Z,76.59
2022-08-22T03:18:44.600Z,77.24
2022-08-22T03:21:28.043Z,77.55
2022-08-22T03:24:05.486Z,77.47
2022-08-22T03:26:57.727Z,77.84
2022-08-22T03:29:28.604Z,77.67
2022-08-22T03:32:17.766Z,77.53
2022-08-22T03:35:01.782Z,75.95
2022-08-22T03:37:33.492Z,73.95
2022-08-22T03:40:09.383Z,72.14
2022-08-22T03:42:59.613Z,70.17
2022-08-22T03:45:42.901Z,70.06
2022-08-22T03:48:11.578Z,69.89
2022-08-22T03:50:40.117Z,68.10
2022-08-22T03:53:36.281Z,67.52
2022-08-22T03:56:16.803Z,67.24
2022-08-22T03:59:10.403Z,66.56
2022-08-22T04:02:02.755Z,66.23
2022-08-22T04:05:00.193Z,65.52
2022-08-22T04:07:47.173Z,65.82
2022-08-22T04:10:39.613Z,65.73
2022-08-22T04:13:17.405Z,65.94
2022-08-22T04:16:16.923Z,66.84
2022-08-22T04:19:08.123Z,67.14
2022-08-22T04:21:36.971Z,67.41
2022-08-22T04:24:15.673Z,68.30
2022-08-22T04:27:10.231Z,68.22
2022-08-22T04:29:59.900Z,68.63
2022-08-22T04:32:52.229Z,69.01
2022-08-22T04:35:40.795Z,69.20
2022-08-22T04:38:14.053Z,70.20
2022-08-22T04:41:04.360Z,69.71
2022-08-22T04:43:33.370Z,70.21
2022-08-22T04:46:12.096Z,70.48
2022-08-22T04:48:47.479Z,71.69
2022-08-22T04:51:27.544Z,72.07
2022-08-22T04:54:34.043Z,72.23
2022-08-22T04:57:17.746Z,72.45
2022-08-22T04:59:47.240Z,72.44
2022-08-22T05:02:24.485Z,72.51
2022-08-22T05:05:05.271Z,73.01
2022-08-22T05:08:01.250Z,73.16
2022-08-22T05:10:39.829Z,73.13
2022-08-22T05:13:31.775Z,73.43
2022-08-22T05:16:04.764Z,74.01
2022-08-22T05:18:46.138Z,73.56
2022-08-22T05:21:16.963Z,73.79
2022-08-22T05:24:01.467Z,74.66
2022-08-22T05:26:34.971Z,74.28
2022-08-22T05:29:09.438Z,74.73
2022-08-22T05:31:48.572Z,75.66
2022-08-22T05:34:23.160Z,74.77
2022-08-22T05:37:08.032Z,75.77
2022-08-22T05:39:41.115Z,75.47
2022-08-22T05:42:14.672Z,76.54
2022-08-22T05:44:43.931Z,76.16
2022-08-22T05:47:19.201Z,76.11
2022-08-22T05:50:06.719Z,76.69
2022-08-22T05:52:51.413Z,76.88
2022-08-22T05:55:25.563Z,76.40
2022-08-22T05:58:07.457Z,77.49
2022-08-22T06:00:42.105Z,77.12
2022-08-22T06:03:36.284Z,77.04
2022-08-22T06:06:16.389Z,77.32
2022-08-22T06:09:03.157Z,77.91
2022-08-22T06:12:21.280Z,78.34
2022-08-22T06:15:12.052Z,78.44
2022-08-22T06:17:50.709Z,78.07
2022-08-22T06:20:29.035Z,78.48
2022-08-22T06:23:03.869Z,78.82
2022-08-22T06:25:35.870Z,78.92
2022-08-22T06:28:14.497Z,79.33
2022-08-22T06:30:47.943Z,79.20
2022-08-22T06:33:27.032Z,79.32
2022-08-22T06:36:32.589Z,80.05
2022-08-22T06:39:03.968Z,79.50
2022-08-22T06:41:38.177Z,80.48
2022-08-22T06:44:08.894Z,80.48
2022-08-22T06:46:39.768Z,80.54
2022-08-22T06:49:10.237Z,80.96
2022-08-22T06:51:40.608Z,81.99
2022-08-22T06:54:19.325Z,81.98
2022-08-22T06:56:50.903Z,82.64
2022-08-22T06:59:31.907Z,83.02
2022-08-22T07:02:00.628Z,82.85
2022-08-22T07:04:30.328Z,83.18
2022-08-22T07:07:02.148Z,83.86
2022-08-22T07:09:35.811Z,83.90
2022-08-22T07:12:13.159Z,84.08
2022-08-22T07:14:45.751Z,84.37
2022-08-22T07:17:24.932Z,84.96
2022-08-22T07:20:06.274Z,84.97
2022-08-22T07:22:38.800Z,84.75
2022-08-22T07:25:17.007Z,84.72
2022-08-22T07:28:05.071Z,85.01
2022-08-22T07:31:12.704Z,85.28
2022-08-22T07:33:55.327Z,85.30
2022-08-22T07:36:41.725Z,86.08
2022-08-22T07:39:23.967Z,86.32
2022-08-22T07:42:04.917Z,86.89
2022-08-22T07:45:04.219Z,87.15
2022-08-22T07:48:04.152Z,87.49
2022-08-22T07:50:39.069Z,87.77
2022-08-22T07:53:41.093Z,87.79
2022-08-22T07:56:35.549Z,88.21
2022-08-22T07:59:32.436Z,88.41
2022-08-22T08:02:03.266Z,88.81
2022-08-22T08:04:40.416Z,88.54
2022-08-22T08:07:12.793Z,88.99
2022-08-22T08:09:51.238Z,88.71
2022-08-22T08:12:23.328Z,88.96
2022-08-22T08:14:55.005Z,88.81
2022-08-22T08:17:36.739Z,88.92
2022-08-22T08:20:13.628Z,89.06
2022-08-22T08:22:47.748Z,89.38
2022-08-22T08:25:23.221Z,89.21
2022-08-22T08:28:11.869Z,89.55
2022-08-22T08:30:56.832Z,89.64
2022-08-22T08:33:29.561Z,89.70
2022-08-22T08:36:09.017Z,89.71
2022-08-22T08:38:55.058Z,89.74
2022-08-22T08:41:41.734Z,89.79
2022-08-22T08:44:28.438Z,89.61
2022-08-22T08:47:17.726Z,89.88
2022-08-22T08:50:34.703Z,89.65
2022-08-22T08:53:18.326Z,89.31
2022-08-22T08:56:03.372Z,89.59
2022-08-22T08:58:53.148Z,89.86
2022-08-22T09:01:46.173Z,90.07
2022-08-22T09:05:10.625Z,89.91
2022-08-22T09:08:02.623Z,89.17
2022-08-22T09:10:58.496Z,90.08
2022-08-22T09:13:40.660Z,90.02
2022-08-22T09:16:33.763Z,89.64
2022-08-22T09:19:26.752Z,89.60
2022-08-22T09:22:50.794Z,89.82
2022-08-22T09:25:24.727Z,89.54
2022-08-22T09:28:22.842Z,90.70
2022-08-22T09:31:44.768Z,90.37
2022-08-22T09:34:33.599Z,91.03
2022-08-22T09:37:21.110Z,90.97
2022-08-22T09:43:08.575Z,91.70
2022-08-22T09:46:04.385Z,90.28
2022-08-22T09:48:59.457Z,90.12
2022-08-22T09:52:15.494Z,91.01
2022-08-22T09:55:08.110Z,91.18
2022-08-22T09:58:20.026Z,91.53
2022-08-22T10:01:18.231Z,90.72
2022-08-22T10:04:13.976Z,90.36
2022-08-22T10:07:11.880Z,92.22
2022-08-22T10:10:06.086Z,91.71
2022-08-22T10:12:50.013Z,91.57
2022-08-22T10:15:53.132Z,91.25
2022-08-22T10:18:33.864Z,91.32
2022-08-22T10:21:02.498Z,91.40
2022-08-22T10:23:46.084Z,91.09
2022-08-22T10:26:22.647Z,90.93
2022-08-22T10:29:30.077Z,91.34
2022-08-22T10:32:14.779Z,91.10
2022-08-22T10:34:51.058Z,91.58
2022-08-22T10:37:39.571Z,91.57
2022-08-22T10:40:24.509Z,91.70
2022-08-22T10:43:20.440Z,91.85
2022-08-22T10:46:12.627Z,92.03
2022-08-22T10:49:05.838Z,92.38
2022-08-22T10:51:52.985Z,92.22
2022-08-22T10:54:29.270Z,92.21
2022-08-22T10:57:39.071Z,92.58
2022-08-22T11:00:34.639Z,92.35
2022-08-22T11:03:21.339Z,92.42
2022-08-22T11:05:56.314Z,92.43
2022-08-22T11:08:55.416Z,92.14
2022-08-22T11:11:37.624Z,92.21
2022-08-22T11:14:09.182Z,92.20
2022-08-22T11:16:48.260Z,92.32
2022-08-22T11:19:26.941Z,92.30
2022-08-22T11:22:33.697Z,92.64
2022-08-22T11:25:29.356Z,93.41
2022-08-22T11:28:29.204Z,94.41
2022-08-22T11:31:11.396Z,94.27
2022-08-22T11:34:00.535Z,94.35
2022-08-22T11:36:46.555Z,94.45
2022-08-22T11:39:21.085Z,94.04
2022-08-22T11:42:21.996Z,93.81
2022-08-22T11:44:53.593Z,93.92
2022-08-22T11:47:28.276Z,93.51
2022-08-22T11:50:22.566Z,93.92
2022-08-22T11:53:07.531Z,94.09
2022-08-22T11:55:54.183Z,93.85
2022-08-22T11:58:28.944Z,94.87
2022-08-22T12:01:17.311Z,94.84
2022-08-22T12:04:09.817Z,94.99
2022-08-22T12:06:54.433Z,95.06
2022-08-22T12:09:57.215Z,94.84
2022-08-22T12:12:54.727Z,94.37
2022-08-22T12:15:30.656Z,94.55
2022-08-22T12:18:29.656Z,94.95
2022-08-22T12:21:07.067Z,94.40
2022-08-22T12:23:49.702Z,94.80
2022-08-22T12:26:24.953Z,93.84
2022-08-22T12:29:40.082Z,93.92
2022-08-22T12:32:44.053Z,92.92
2022-08-22T12:35:58.197Z,92.79
2022-08-22T12:38:31.297Z,92.95
2022-08-22T12:41:46.742Z,92.38
2022-08-22T12:44:40.193Z,92.70
2022-08-22T12:47:45.592Z,91.52
2022-08-22T12:50:32.297Z,91.46
2022-08-22T12:53:30.423Z,91.00
2022-08-22T12:56:47.372Z,89.86
2022-08-22T12:59:35.895Z,89.38
2022-08-22T13:02:26.752Z,88.14
2022-08-22T13:05:01.976Z,88.06
2022-08-22T13:07:38.880Z,87.10
2022-08-22T13:10:17.371Z,86.77
2022-08-22T13:12:53.028Z,86.55
2022-08-22T13:15:53.998Z,85.51
2022-08-22T13:18:30.337Z,84.97
2022-08-22T13:21:04.404Z,84.47
2022-08-22T13:23:58.408Z,84.29
2022-08-22T13:26:35.223Z,84.61
2022-08-22T13:29:27.560Z,85.04
2022-08-22T13:32:10.973Z,83.63
2022-08-22T13:34:46.039Z,82.83
2022-08-22T13:37:24.481Z,82.74
2022-08-22T13:40:02.488Z,80.87
2022-08-22T13:42:33.974Z,80.61
2022-08-22T13:45:18.632Z,81.00
2022-08-22T13:47:58.588Z,80.61
2022-08-22T13:50:37.579Z,79.35
2022-08-22T13:53:42.323Z,78.45
2022-08-22T13:56:26.863Z,79.34
2022-08-22T13:59:00.681Z,78.29
2022-08-22T14:01:53.023Z,77.17
2022-08-22T14:04:36.419Z,77.77
2022-08-22T14:07:05.317Z,77.63
2022-08-22T14:09:57.085Z,78.27
2022-08-22T14:12:33.678Z,76.48
2022-08-22T14:15:45.396Z,76.20
2022-08-22T14:18:45.500Z,74.23
2022-08-22T14:21:33.427Z,74.03
2022-08-22T14:24:30.556Z,74.02
2022-08-22T14:26:59.229Z,73.04
2022-08-22T14:29:50.106Z,72.62
2022-08-22T14:32:26.663Z,70.98
2022-08-22T14:35:00.480Z,71.30
2022-08-22T14:37:40.058Z,70.90
2022-08-22T14:40:30.368Z,69.76
2022-08-22T14:43:25.751Z,70.04
2022-08-22T14:46:03.098Z,71.23
2022-08-22T14:48:57.698Z,69.72
2022-08-22T14:51:28.067Z,68.94
2022-08-22T14:54:21.643Z,68.03
2022-08-22T14:56:53.566Z,67.20
2022-08-22T14:59:45.045Z,66.46
2022-08-22T15:02:34.626Z,67.13
2022-08-22T15:05:21.408Z,65.96
2022-08-22T15:07:57.150Z,64.88
2022-08-22T15:10:31.797Z,63.85
2022-08-22T15:13:09.095Z,63.03
2022-08-22T15:15:53.440Z,62.66
2022-08-22T15:18:29.852Z,63.47
2022-08-22T15:21:03.879Z,63.20
2022-08-22T15:23:45.458Z,63.44
2022-08-22T15:26:34.357Z,61.26
2022-08-22T15:29:25.305Z,60.39
2022-08-22T15:31:59.001Z,59.62
2022-08-22T15:34:43.294Z,60.49
2022-08-22T15:37:17.966Z,60.69
2022-08-22T15:40:29.679Z,58.87
2022-08-22T15:42:58.512Z,60.31
2022-08-22T15:45:39.623Z,60.62
2022-08-22T15:48:26.687Z,57.96
2022-08-22T15:51:00.448Z,58.61
2022-08-22T15:53:57.940Z,58.62
2022-08-22T15:56:41.817Z,58.04
2022-08-22T15:59:47.716Z,59.09
2022-08-22T16:02:39.223Z,57.39
2022-08-22T16:05:14.647Z,57.74
2022-08-22T16:08:01.541Z,57.05
2022-08-22T16:10:51.342Z,55.56
2022-08-22T16:13:28.866Z,55.29
2022-08-22T16:16:03.652Z,54.07
2022-08-22T16:18:35.365Z,53.81
2022-08-22T16:21:15.449Z,52.88
2022-08-22T16:23:55.140Z,52.31
2022-08-22T16:26:32.983Z,53.71
2022-08-22T16:29:08.133Z,52.23
2022-08-22T16:31:45.843Z,49.16
2022-08-22T16:34:28.707Z,49.31
2022-08-22T16:37:22.792Z,49.74
2022-08-22T16:40:13.124Z,49.72
2022-08-22T16:43:12.948Z,46.12
2022-08-22T16:45:46.882Z,48.82
2022-08-22T16:48:27.519Z,46.83
2022-08-22T16:51:05.560Z,45.71
2022-08-22T16:53:37.213Z,46.64
2022-08-22T16:56:32.157Z,46.34
2022-08-22T16:59:23.499Z,46.34
2022-08-22T17:02:08.511Z,47.19
2022-08-22T17:04:46.229Z,42.26
2022-08-22T17:07:34.053Z,45.49
2022-08-22T17:10:27.974Z,45.73
2022-08-22T17:13:18.331Z,45.80
2022-08-22T17:15:49.239Z,43.04
2022-08-22T17:18:41.627Z,43.91
2022-08-22T17:21:51.849Z,44.13
2022-08-22T17:24:34.492Z,43.48
2022-08-22T17:27:10.723Z,45.75
2022-08-22T17:29:46.089Z,42.34
2022-08-22T17:32:23.259Z,41.65
2022-08-22T17:35:00.976Z,41.90
2022-08-22T17:37:50.614Z,42.35
2022-08-22T17:40:40.163Z,41.31
2022-08-22T17:43:33.598Z,44.38
2022-08-22T17:46:32.671Z,44.88
2022-08-22T17:49:32.277Z,41.81
2022-08-22T17:52:19.256Z,41.98
2022-08-22T17:55:24.542Z,42.01
2022-08-22T17:58:37.836Z,40.96
2022-08-22T18:01:38.175Z,41.58
2022-08-22T18:04:12.640Z,39.67
2022-08-22T18:06:55.458Z,41.48
2022-08-22T18:09:39.374Z,39.43
2022-08-22T18:12:23.096Z,44.83
2022-08-22T18:15:01.374Z,41.26
2022-08-22T18:17:39.036Z,41.77
2022-08-22T18:20:17.215Z,40.69
2022-08-22T18:22:55.991Z,41.94
2022-08-22T18:25:24.669Z,42.25
2022-08-22T18:28:05.113Z,40.12
2022-08-22T18:30:55.859Z,41.17
2022-08-22T18:33:34.523Z,40.41
2022-08-22T18:36:20.533Z,41.49
2022-08-22T18:39:08.372Z,39.46
2022-08-22T18:41:43.036Z,40.71
2022-08-22T18:44:14.703Z,39.75
2022-08-22T18:46:47.774Z,39.69
2022-08-22T18:49:25.938Z,40.15
2022-08-22T18:52:18.265Z,37.04
2022-08-22T18:55:17.208Z,36.55
2022-08-22T18:58:04.298Z,35.09
2022-08-22T19:00:57.474Z,35.19
2022-08-22T19:03:40.848Z,37.98
2022-08-22T19:06:20.696Z,37.72
2022-08-22T19:09:09.053Z,36.62
2022-08-22T19:12:16.064Z,37.28
2022-08-22T19:15:07.698Z,36.91
2022-08-22T19:17:59.192Z,37.67
2022-08-22T19:20:51.287Z,35.82
2022-08-22T19:23:38.419Z,35.90
2022-08-22T19:26:42.368Z,35.19
2022-08-22T19:29:19.356Z,37.00
2022-08-22T19:31:51.328Z,35.44
2022-08-22T19:34:33.413Z,36.94
2022-08-22T19:37:30.842Z,35.30
2022-08-22T19:40:09.330Z,37.16
2022-08-22T19:42:41.209Z,34.87
2022-08-22T19:45:30.237Z,34.32
2022-08-22T19:48:11.703Z,35.45
2022-08-22T19:50:43.404Z,36.54
2022-08-22T19:53:40.261Z,36.56
2022-08-22T19:56:37.002Z,34.45
2022-08-22T20:00:01.470Z,33.51
2022-08-22T20:02:52.994Z,33.46
2022-08-22T20:05:39.129Z,33.29
2022-08-22T20:08:29.372Z,32.86
2022-08-22T20:10:57.921Z,33.27
2022-08-22T20:13:31.195Z,33.02
2022-08-22T20:16:25.016Z,34.85
2022-08-22T20:19:09.345Z,31.17
2022-08-22T20:21:45.340Z,31.36
2022-08-22T20:24:52.859Z,32.40
2022-08-22T20:27:24.289Z,32.75
2022-08-22T20:29:56.073Z,32.58
2022-08-22T20:32:26.591Z,31.63
2022-08-22T20:35:00.094Z,32.24
2022-08-22T20:38:05.303Z,33.24
2022-08-22T20:40:54.945Z,33.32
2022-08-22T20:43:39.394Z,34.06
2022-08-22T20:46:25.900Z,33.59
2022-08-22T20:48:57.255Z,33.36
2022-08-22T20:51:28.458Z,31.99
2022-08-22T20:54:10.394Z,32.26
2022-08-22T20:57:03.455Z,32.42
2022-08-22T20:59:38.575Z,31.49
2022-08-22T21:02:36.250Z,33.83
2022-08-22T21:05:10.531Z,32.68
2022-08-22T21:07:45.435Z,31.95
2022-08-22T21:10:37.823Z,32.47
2022-08-22T21:13:11.137Z,32.06
2022-08-22T21:15:53.286Z,31.36
2022-08-22T21:18:45.959Z,31.36
2022-08-22T21:21:29.807Z,30.95
2022-08-22T21:24:09.542Z,31.93
2022-08-22T21:26:48.184Z,31.21
2022-08-22T21:29:16.873Z,30.96
2022-08-22T21:32:06.330Z,31.33
2022-08-22T21:34:44.624Z,34.61
2022-08-22T21:37:25.139Z,32.78
2022-08-22T21:40:14.520Z,33.80
2022-08-22T21:42:47.197Z,33.06
2022-08-22T21:45:31.055Z,33.55
2022-08-22T21:47:59.960Z,34.28
2022-08-22T21:50:39.776Z,35.30
2022-08-22T21:53:14.110Z,32.93
2022-08-22T21:55:49.380Z,33.43
2022-08-22T21:58:36.238Z,35.30
2022-08-22T22:01:29.162Z,33.95
2022-08-22T22:04:00.437Z,34.47
2022-08-22T22:06:29.624Z,33.96
2022-08-22T22:08:58.300Z,35.51
2022-08-22T22:11:26.940Z,35.37
2022-08-22T22:13:55.813Z,33.57
2022-08-22T22:16:29.287Z,34.61
2022-08-22T22:18:58.621Z,33.98
2022-08-22T22:21:27.243Z,33.91
2022-08-22T22:23:57.759Z,35.97
2022-08-22T22:26:28.082Z,33.67
2022-08-22T22:28:56.515Z,33.93
2022-08-22T22:31:25.133Z,35.22
2022-08-22T22:33:53.543Z,34.34
2022-08-22T22:36:26.712Z,34.41
2022-08-22T22:38:56.477Z,32.14
2022-08-22T22:41:26.840Z,32.69
2022-08-22T22:43:56.632Z,34.50
2022-08-22T22:46:28.220Z,34.71
2022-08-22T22:48:58.329Z,34.55
2022-08-22T22:51:27.133Z,34.43
2022-08-22T22:53:58.171Z,34.71
2022-08-22T22:56:27.544Z,35.10
2022-08-22T22:59:01.002Z,34.36
2022-08-22T23:02:09.243Z,33.78
2022-08-22T23:04:50.999Z,34.11
2022-08-22T23:07:20.333Z,34.16
2022-08-22T23:09:52.982Z,33.81
2022-08-22T23:12:24.244Z,33.30
2022-08-22T23:14:52.646Z,33.52
2022-08-22T23:17:21.664Z,33.39
2022-08-22T23:19:51.963Z,33.22
2022-08-22T23:22:21.500Z,34.07
2022-08-22T23:24:51.301Z,33.37
2022-08-22T23:27:20.475Z,33.48
2022-08-22T23:29:48.985Z,33.75
2022-08-22T23:32:17.758Z,33.07
2022-08-22T23:34:50.144Z,34.43
2022-08-22T23:37:21.510Z,33.78
2022-08-22T23:39:51.025Z,33.89
2022-08-22T23:42:19.563Z,33.54
2022-08-22T23:44:47.898Z,33.83
2022-08-22T23:47:16.865Z,34.03
2022-08-22T23:49:46.044Z,34.55
2022-08-22T23:52:15.242Z,33.75
2022-08-22T23:54:43.710Z,34.13
2022-08-22T23:57:12.802Z,34.64
2022-08-22T23:59:48.449Z,34.38
